Time;durP1;ratioP1;P1;durP2;ratioP2;P2;SDS_P1;SDS_P2;PMS_P1;PMS_P2;Temp;Humidity;BMP_temperature;BMP_pressure;BME280_temperature;BME280_humidity;BME280_pressure;Samples;Min_cycle;Max_cycle;Signal;HPM_P1;HPM_P2
2022/08/02 00:00:31;;;;;;;3.37;3.07;;;15.70;99.90;;;;;;8334970;28;20337;-67
2022/08/02 00:04:32;;;;;;;3.00;2.80;;;15.70;99.90;;;;;;8337591;28;20290;-66
2022/08/02 00:08:33;;;;;;;3.37;3.07;;;15.70;99.90;;;;;;8337120;28;20236;-66
2022/08/02 00:12:34;;;;;;;3.50;3.20;;;15.70;99.90;;;;;;8335723;28;20212;-66
2022/08/02 00:16:35;;;;;;;3.70;3.40;;;15.80;99.90;;;;;;8334226;28;20194;-66
2022/08/02 00:20:35;;;;;;;3.57;2.70;;;15.70;99.90;;;;;;8338019;28;20252;-69
2022/08/02 00:24:36;;;;;;;3.30;3.00;;;15.70;99.90;;;;;;8333089;28;20228;-67
2022/08/02 00:28:37;;;;;;;3.10;2.90;;;15.60;99.90;;;;;;8334587;28;20205;-67
2022/08/02 00:32:38;;;;;;;3.80;3.00;;;15.60;99.90;;;;;;8333180;28;20185;-67
2022/08/02 00:36:39;;;;;;;3.50;3.20;;;15.50;99.90;;;;;;8335794;28;20190;-66
2022/08/02 00:40:40;;;;;;;3.23;2.93;;;15.40;99.90;;;;;;8335093;28;20241;-67
2022/08/02 00:44:41;;;;;;;3.40;2.93;;;15.40;99.90;;;;;;8340316;28;20189;-67
2022/08/02 00:48:42;;;;;;;3.83;3.53;;;15.40;99.90;;;;;;8333706;28;20206;-67
2022/08/02 00:52:43;;;;;;;4.47;4.00;;;15.50;99.90;;;;;;8334932;28;20186;-67
2022/08/02 00:56:44;;;;;;;4.50;4.10;;;15.50;99.90;;;;;;8338411;28;20194;-67
2022/08/02 01:00:45;;;;;;;4.60;4.20;;;15.40;99.90;;;;;;8341633;28;20237;-67
2022/08/02 01:04:46;;;;;;;5.97;4.40;;;15.40;99.90;;;;;;8342670;28;20244;-67
2022/08/02 01:08:47;;;;;;;4.47;4.10;;;15.50;99.90;;;;;;8343478;28;20279;-67
2022/08/02 01:12:47;;;;;;;4.97;4.57;;;15.50;99.90;;;;;;8342518;28;20210;-67
2022/08/02 01:17:07;;;;;;;5.80;4.30;;;15.40;99.90;;;;;;8339817;28;20182;-67
2022/08/02 01:21:23;;;;;;;4.07;3.73;;;15.40;99.90;;;;;;8342306;28;20186;-66
2022/08/02 01:25:57;;;;;;;3.27;3.07;;;15.30;99.90;;;;;;8339201;28;20186;-69
2022/08/02 01:30:06;;;;;;;3.27;3.07;;;15.10;99.90;;;;;;8342532;28;20209;-67
2022/08/02 01:34:18;;;;;;;3.23;2.93;;;14.90;99.90;;;;;;8338481;28;20182;-67
2022/08/02 01:38:35;;;;;;;3.00;2.80;;;14.80;99.90;;;;;;8338933;28;20182;-69
2022/08/02 01:42:39;;;;;;;3.93;2.83;;;14.70;99.90;;;;;;8345748;28;20186;-67
2022/08/02 01:46:42;;;;;;;3.10;2.80;;;14.50;99.90;;;;;;8339866;28;20186;-66
2022/08/02 01:50:45;;;;;;;3.43;3.13;;;14.40;99.90;;;;;;8339156;28;20209;-67
2022/08/02 01:55:03;;;;;;;4.00;3.60;;;14.40;99.90;;;;;;8337926;28;20837;-68
2022/08/02 01:59:08;;;;;;;3.60;3.30;;;14.30;99.90;;;;;;8339793;28;20187;-68
2022/08/02 02:03:18;;;;;;;4.27;3.90;;;14.30;99.90;;;;;;8340052;28;20170;-67
2022/08/02 02:07:20;;;;;;;3.50;3.20;;;14.20;99.90;;;;;;8335153;28;20187;-67
2022/08/02 02:11:21;;;;;;;3.43;3.13;;;14.10;99.90;;;;;;8340418;28;20211;-67
2022/08/02 02:15:23;;;;;;;3.83;3.53;;;14.10;99.90;;;;;;8338725;28;20182;-67
2022/08/02 02:19:26;;;;;;;4.03;3.73;;;14.10;99.90;;;;;;8335239;28;20189;-66
2022/08/02 02:23:27;;;;;;;4.30;3.90;;;14.00;99.90;;;;;;8335735;28;20264;-66
2022/08/02 02:27:28;;;;;;;4.03;3.73;;;14.00;99.90;;;;;;8341204;28;20248;-67
2022/08/02 02:31:35;;;;;;;4.20;3.80;;;13.90;99.90;;;;;;8336530;28;20280;-68
2022/08/02 02:35:37;;;;;;;3.90;3.50;;;13.90;99.90;;;;;;8335996;28;20186;-67
2022/08/02 02:39:38;;;;;;;3.70;3.40;;;13.80;99.90;;;;;;8331917;28;20274;-67
2022/08/02 02:43:40;;;;;;;3.97;3.60;;;13.80;99.90;;;;;;8338463;28;20214;-66
2022/08/02 02:47:42;;;;;;;3.67;3.37;;;13.70;99.90;;;;;;8339940;28;20209;-67
2022/08/02 02:51:44;;;;;;;3.80;3.50;;;13.60;99.90;;;;;;8338618;28;20221;-67
2022/08/02 02:55:45;;;;;;;3.43;3.13;;;13.50;99.90;;;;;;8337957;28;20229;-67
2022/08/02 02:59:47;;;;;;;3.87;3.20;;;13.50;99.90;;;;;;8336311;28;20295;-66
2022/08/02 03:03:50;;;;;;;3.17;2.87;;;13.40;99.90;;;;;;8333651;28;20194;-66
2022/08/02 03:07:51;;;;;;;3.47;3.17;;;13.50;99.90;;;;;;8333407;28;20265;-67
2022/08/02 03:11:55;;;;;;;3.70;3.40;;;13.50;99.90;;;;;;8339161;28;20220;-67
2022/08/02 03:15:58;;;;;;;4.10;3.80;;;13.60;99.90;;;;;;8342072;28;20178;-66
2022/08/02 03:19:59;;;;;;;3.53;3.23;;;13.60;99.90;;;;;;8339564;28;20182;-67
2022/08/02 03:24:00;;;;;;;3.93;3.53;;;13.60;99.90;;;;;;8341351;28;20213;-67
2022/08/02 03:28:01;;;;;;;4.90;4.17;;;13.50;99.90;;;;;;8339279;28;20240;-67
2022/08/02 03:32:02;;;;;;;4.70;4.30;;;13.50;99.90;;;;;;8333011;28;20185;-68
2022/08/02 03:36:10;;;;;;;4.70;4.30;;;13.50;99.90;;;;;;8330763;28;20184;-67
2022/08/02 03:40:12;;;;;;;4.43;4.03;;;13.60;99.90;;;;;;8335709;28;20189;-68
2022/08/02 03:44:14;;;;;;;4.17;3.87;;;13.60;99.90;;;;;;8339251;28;20193;-68
2022/08/02 03:48:15;;;;;;;3.73;3.43;;;13.60;99.90;;;;;;8329101;28;20202;-67
2022/08/02 03:52:16;;;;;;;5.03;4.63;;;13.60;99.90;;;;;;8332091;28;20175;-68
2022/08/02 03:56:18;;;;;;;5.20;4.70;;;13.70;99.90;;;;;;8336326;28;20172;-67
2022/08/02 04:00:21;;;;;;;5.27;4.83;;;13.80;99.90;;;;;;8331456;28;20193;-67
2022/08/02 04:04:22;;;;;;;5.57;5.07;;;13.90;99.90;;;;;;8337656;28;20189;-68
2022/08/02 04:08:23;;;;;;;5.80;5.30;;;14.50;99.90;;;;;;8338561;28;20210;-68
2022/08/02 04:12:23;;;;;;;4.87;4.37;;;15.20;99.90;;;;;;8340635;28;20609;-68
2022/08/02 04:16:51;;;;;;;5.37;4.87;;;15.50;99.90;;;;;;8334535;28;20182;-68
2022/08/02 04:20:53;;;;;;;4.80;4.40;;;16.10;99.90;;;;;;8338642;28;20173;-70
2022/08/02 04:24:58;;;;;;;4.70;4.30;;;17.00;99.90;;;;;;8333217;28;20214;-68
2022/08/02 04:29:00;;;;;;;4.67;4.27;;;17.40;99.90;;;;;;8334333;28;20210;-68
2022/08/02 04:33:01;;;;;;;5.17;4.77;;;17.40;99.90;;;;;;8345850;28;20183;-68
2022/08/02 04:37:05;;;;;;;6.20;5.60;;;17.20;99.90;;;;;;8335715;28;20269;-68
2022/08/02 04:41:06;;;;;;;5.87;5.37;;;17.00;99.90;;;;;;8339028;28;20210;-68
2022/08/02 04:45:09;;;;;;;5.17;4.77;;;16.80;99.90;;;;;;8340852;28;20266;-67
2022/08/02 04:49:10;;;;;;;8.33;6.67;;;16.70;99.90;;;;;;8342779;28;20237;-68
2022/08/02 04:53:11;;;;;;;6.60;6.00;;;16.60;99.90;;;;;;8340442;28;20209;-68
2022/08/02 05:01:31;;;;;;;7.00;6.40;;;16.60;99.90;;;;;;8338285;28;20252;-68
2022/08/02 05:05:32;;;;;;;5.40;4.90;;;16.80;99.90;;;;;;8341411;28;20190;-68
2022/08/02 05:09:33;;;;;;;4.57;4.00;;;17.00;99.90;;;;;;8346549;28;20210;-68
2022/08/02 05:13:33;;;;;;;5.07;4.67;;;17.30;99.90;;;;;;8343807;28;20198;-68
2022/08/02 05:17:34;;;;;;;4.40;4.07;;;17.50;99.90;;;;;;8340493;28;20179;-68
2022/08/02 05:21:35;;;;;;;4.00;3.70;;;17.70;99.90;;;;;;8341138;28;20244;-68
2022/08/02 05:25:39;;;;;;;4.77;4.27;;;18.00;99.90;;;;;;8344859;28;20183;-66
2022/08/02 05:29:40;;;;;;;3.97;3.67;;;18.40;99.90;;;;;;8344046;28;20213;-66
2022/08/02 05:33:41;;;;;;;5.33;4.83;;;18.60;99.90;;;;;;8338827;28;20181;-66
2022/08/02 05:37:42;;;;;;;4.07;3.40;;;18.80;99.90;;;;;;8337360;28;20182;-66
2022/08/02 05:41:42;;;;;;;5.20;4.30;;;19.00;99.90;;;;;;8340155;28;20182;-66
2022/08/02 05:45:43;;;;;;;3.47;3.17;;;19.20;99.90;;;;;;8336849;28;20178;-66
2022/08/02 05:49:44;;;;;;;3.07;2.70;;;19.30;99.90;;;;;;8336374;28;20214;-71
2022/08/02 05:53:47;;;;;;;2.80;2.60;;;19.40;99.90;;;;;;8341047;28;20293;-66
2022/08/02 05:57:52;;;;;;;3.87;3.07;;;19.30;99.90;;;;;;8345315;28;20217;-66
2022/08/02 06:01:56;;;;;;;4.23;3.27;;;19.40;99.90;;;;;;8340132;28;20465;-66
2022/08/02 06:06:10;;;;;;;4.37;3.53;;;19.20;99.90;;;;;;8337802;28;20189;-66
2022/08/02 06:10:13;;;;;;;3.83;3.47;;;19.00;99.90;;;;;;8339795;28;20324;-66
2022/08/02 06:14:14;;;;;;;5.10;3.27;;;18.90;13.50;;;;;;8337648;28;20230;-66
2022/08/02 06:18:15;;;;;;;3.10;2.80;;;19.00;89.90;;;;;;8335548;28;20179;-75
2022/08/02 06:22:16;;;;;;;3.50;2.87;;;19.30;1.00;;;;;;8339670;28;20194;-66
2022/08/02 06:26:18;;;;;;;3.73;3.07;;;19.50;99.90;;;;;;8339949;28;20182;-66
2022/08/02 06:30:18;;;;;;;7.20;3.00;;;19.80;65.10;;;;;;8341410;28;20197;-66
2022/08/02 06:34:19;;;;;;;4.17;2.90;;;20.00;1.00;;;;;;8334282;28;20189;-66
2022/08/02 06:38:23;;;;;;;2.73;2.10;;;20.00;99.90;;;;;;8339530;28;20197;-67
2022/08/02 06:42:32;;;;;;;3.67;2.50;;;19.90;99.90;;;;;;8335266;28;20186;-66
2022/08/02 06:46:33;;;;;;;3.87;2.43;;;19.80;99.90;;;;;;8342266;28;20190;-66
2022/08/02 06:50:37;;;;;;;4.63;2.60;;;20.10;99.90;;;;;;8336244;28;20210;-68
2022/08/02 06:54:40;;;;;;;3.57;2.30;;;20.20;1.00;;;;;;8333354;28;20177;-67
2022/08/02 06:58:41;;;;;;;2.60;2.33;;;20.50;99.90;;;;;;8337979;28;20190;-67
2022/08/02 07:02:42;;;;;;;3.20;2.20;;;20.90;99.90;;;;;;8334496;28;20186;-66
2022/08/02 07:06:43;;;;;;;2.23;1.80;;;21.20;99.90;;;;;;8335899;28;20245;-67
2022/08/02 07:10:44;;;;;;;5.37;1.50;;;21.50;1.00;;;;;;8333103;28;20244;-67
2022/08/02 07:14:45;;;;;;;2.47;1.43;;;21.80;99.90;;;;;;8338179;28;20225;-66
2022/08/02 07:18:46;;;;;;;3.93;1.40;;;22.10;99.90;;;;;;8333459;28;20182;-67
2022/08/02 07:22:47;;;;;;;2.00;1.30;;;22.40;1.00;;;;;;8334667;28;20186;-66
2022/08/02 07:26:47;;;;;;;3.33;1.40;;;23.00;1.00;;;;;;8335743;28;20179;-67
2022/08/02 07:30:48;;;;;;;2.40;1.63;;;23.60;99.90;;;;;;8330727;28;20260;-68
2022/08/02 07:34:50;;;;;;;1.53;1.30;;;23.80;99.90;;;;;;8333728;28;20217;-66
2022/08/02 07:38:51;;;;;;;3.00;1.70;;;24.00;99.90;;;;;;8343935;28;20569;-67
2022/08/02 07:42:54;;;;;;;3.00;1.47;;;24.20;99.90;;;;;;8335420;28;20186;-67
2022/08/02 07:46:55;;;;;;;2.17;1.50;;;23.70;99.90;;;;;;8331900;28;20278;-66
2022/08/02 07:50:56;;;;;;;2.20;1.53;;;23.50;99.90;;;;;;8337110;28;20224;-66
2022/08/02 07:54:57;;;;;;;3.17;1.30;;;23.10;99.90;;;;;;8332984;28;20546;-66
2022/08/02 07:58:57;;;;;;;3.00;1.40;;;22.90;99.90;;;;;;8339526;28;20236;-66
2022/08/02 08:02:58;;;;;;;1.67;1.30;;;23.00;99.90;;;;;;8336765;28;20186;-66
2022/08/02 08:06:59;;;;;;;2.77;1.10;;;23.10;99.90;;;;;;8332505;28;20475;-66
2022/08/02 08:11:00;;;;;;;4.20;1.87;;;23.20;99.90;;;;;;8336409;28;20218;-66
2022/08/02 08:15:01;;;;;;;2.43;1.60;;;23.30;99.90;;;;;;8337458;28;20174;-66
2022/08/02 08:19:03;;;;;;;2.83;1.60;;;23.20;99.90;;;;;;8336758;28;20297;-67
2022/08/02 08:23:03;;;;;;;3.57;1.63;;;23.20;99.90;;;;;;8333763;28;20192;-66
2022/08/02 08:27:05;;;;;;;2.03;1.77;;;23.10;99.90;;;;;;8343983;28;20182;-66
2022/08/02 08:31:05;;;;;;;2.90;1.60;;;23.20;99.90;;;;;;8335098;28;20230;-65
2022/08/02 08:35:09;;;;;;;1.43;1.33;;;23.70;99.90;;;;;;8333435;28;20189;-66
2022/08/02 08:39:10;;;;;;;2.90;1.33;;;23.90;99.90;;;;;;8339704;28;20194;-66
2022/08/02 08:43:12;;;;;;;2.33;1.20;;;24.50;99.90;;;;;;8334936;28;20190;-66
2022/08/02 08:47:13;;;;;;;2.17;1.60;;;25.20;99.90;;;;;;8329739;28;20287;-66
2022/08/02 08:51:19;;;;;;;2.53;1.75;;;25.70;99.90;;;;;;8334526;28;20209;-67
2022/08/02 08:55:25;;;;;;;3.90;2.13;;;26.00;99.90;;;;;;8336017;28;20232;-66
2022/08/02 08:59:26;;;;;;;2.75;1.40;;;26.10;99.90;;;;;;8337224;28;20194;-66
2022/08/02 09:03:27;;;;;;;2.25;1.40;;;25.80;99.90;;;;;;8329116;28;20185;-65
2022/08/02 09:07:28;;;;;;;3.90;1.40;;;25.80;99.90;;;;;;8331593;28;20221;-66
2022/08/02 09:11:28;;;;;;;1.73;1.60;;;25.50;99.90;;;;;;8335276;28;20218;-65
2022/08/02 09:15:29;;;;;;;1.55;1.40;;;24.70;99.90;;;;;;8343645;28;20186;-66
2022/08/02 09:19:35;;;;;;;1.60;1.40;;;24.10;99.90;;;;;;8339000;28;20190;-66
2022/08/02 09:23:39;;;;;;;1.70;1.30;;;23.90;99.90;;;;;;8340127;28;20269;-66
2022/08/02 09:27:40;;;;;;;3.42;1.40;;;24.00;99.90;;;;;;8337900;28;20182;-66
2022/08/02 09:31:41;;;;;;;2.95;1.48;;;24.60;99.90;;;;;;8340528;28;20259;-66
2022/08/02 09:35:42;;;;;;;1.17;1.08;;;25.30;99.90;;;;;;8339763;28;20210;-66
2022/08/02 09:39:44;;;;;;;1.30;1.05;;;26.00;97.90;;;;;;8344991;28;20505;-66
2022/08/02 09:43:45;;;;;;;1.63;1.20;;;26.60;32.90;;;;;;8345587;28;20189;-66
2022/08/02 09:47:48;;;;;;;3.33;1.00;;;27.00;24.00;;;;;;8338839;28;20194;-66
2022/08/02 09:51:53;;;;;;;2.95;1.27;;;27.40;1.00;;;;;;8344999;28;20182;-66
2022/08/02 09:55:57;;;;;;;1.58;1.30;;;27.60;1.00;;;;;;8339693;28;20191;-72
2022/08/02 09:59:58;;;;;;;1.58;1.20;;;26.80;1.00;;;;;;8336587;28;20182;-67
2022/08/02 10:04:02;;;;;;;1.15;1.00;;;25.60;1.00;;;;;;8338216;28;20341;-66
2022/08/02 10:08:03;;;;;;;2.42;0.98;;;25.50;13.80;;;;;;8341573;28;20214;-66
2022/08/02 10:12:04;;;;;;;1.52;0.93;;;25.50;6.20;;;;;;8335984;28;20197;-65
2022/08/02 10:16:05;;;;;;;1.15;1.00;;;25.90;1.00;;;;;;8332715;28;20713;-66
2022/08/02 10:20:07;;;;;;;1.98;1.10;;;26.00;1.00;;;;;;8338624;28;20213;-66
2022/08/02 10:24:16;;;;;;;1.73;1.40;;;26.20;1.00;;;;;;8336720;28;20178;-65
2022/08/02 10:28:18;;;;;;;2.10;0.93;;;26.50;1.00;;;;;;8341577;28;20214;-65
2022/08/02 10:32:28;;;;;;;1.58;1.00;;;27.00;1.00;;;;;;8332684;28;20170;-66
2022/08/02 10:36:32;;;;;;;2.03;1.15;;;27.70;1.00;;;;;;8339189;28;20179;-66
2022/08/02 10:40:46;;;;;;;2.05;0.95;;;28.20;1.00;;;;;;8334850;28;20218;-66
2022/08/02 10:44:47;;;;;;;1.48;0.90;;;28.50;1.00;;;;;;8335630;28;20217;-65
2022/08/02 10:49:06;;;;;;;1.42;1.00;;;28.50;1.00;;;;;;8337172;28;20218;-66
2022/08/02 10:53:35;;;;;;;1.50;1.05;;;27.60;1.00;;;;;;8340837;28;20193;-66
2022/08/02 10:57:36;;;;;;;1.38;1.10;;;26.90;1.00;;;;;;8336211;28;20733;-66
2022/08/02 11:01:42;;;;;;;1.67;1.08;;;26.60;1.00;;;;;;8333135;28;20200;-65
2022/08/02 11:05:59;;;;;;;2.58;1.45;;;26.80;1.00;;;;;;8335687;28;20190;-66
2022/08/02 11:10:27;;;;;;;1.45;1.30;;;27.10;1.00;;;;;;8354649;28;20294;-64
2022/08/02 11:14:28;;;;;;;2.75;1.30;;;26.80;1.00;;;;;;8336805;28;20305;-65
2022/08/02 11:18:48;;;;;;;1.45;1.10;;;26.70;1.00;;;;;;8336426;28;20305;-67
2022/08/02 11:23:10;;;;;;;2.47;1.80;;;27.00;1.00;;;;;;8335888;28;20795;-66
2022/08/02 11:27:20;;;;;;;1.73;1.50;;;26.90;1.00;;;;;;8333852;28;20182;-66
2022/08/02 11:31:21;;;;;;;1.48;1.38;;;27.00;1.00;;;;;;8340073;28;20225;-66
2022/08/02 11:35:22;;;;;;;2.97;1.50;;;27.30;1.00;;;;;;8337630;28;20178;-65
2022/08/02 11:39:23;;;;;;;2.60;1.30;;;27.30;1.00;;;;;;8331050;28;20228;-66
2022/08/02 11:43:26;;;;;;;1.30;1.20;;;27.60;1.00;;;;;;8337914;28;20181;-65
2022/08/02 11:47:27;;;;;;;2.72;1.30;;;27.90;1.00;;;;;;8341026;28;20182;-67
2022/08/02 11:51:27;;;;;;;1.63;1.52;;;27.80;1.00;;;;;;8333788;28;20272;-66
2022/08/02 11:55:30;;;;;;;2.28;1.58;;;27.70;1.00;;;;;;8333834;28;20188;-66
2022/08/02 11:59:31;;;;;;;1.60;1.50;;;27.50;1.00;;;;;;8336087;28;20192;-66
2022/08/02 12:03:37;;;;;;;2.72;1.20;;;26.70;1.00;;;;;;8337162;28;20186;-66
2022/08/02 12:07:39;;;;;;;1.55;1.30;;;26.60;1.00;;;;;;8334776;28;20193;-65
2022/08/02 12:11:41;;;;;;;1.75;1.42;;;26.80;1.00;;;;;;8329662;28;20209;-65
2022/08/02 12:15:45;;;;;;;1.52;1.40;;;26.60;1.00;;;;;;8334405;28;20187;-69
2022/08/02 12:19:47;;;;;;;1.50;1.40;;;26.30;1.00;;;;;;8330572;28;20189;-66
2022/08/02 12:23:50;;;;;;;3.35;1.70;;;26.60;1.00;;;;;;8327572;28;20204;-66
2022/08/02 12:27:51;;;;;;;1.60;1.50;;;27.00;1.00;;;;;;8335509;28;20191;-66
2022/08/02 12:31:52;;;;;;;1.48;1.30;;;27.60;1.00;;;;;;8331274;28;20201;-66
2022/08/02 12:35:53;;;;;;;1.42;1.20;;;27.90;1.00;;;;;;8333764;28;20216;-66
2022/08/02 12:39:54;;;;;;;2.53;1.40;;;27.80;1.00;;;;;;8335189;28;20194;-66
2022/08/02 12:43:56;;;;;;;1.50;1.40;;;28.10;1.00;;;;;;8335539;28;20174;-65
2022/08/02 12:47:59;;;;;;;1.85;1.30;;;28.60;1.00;;;;;;8329005;28;20183;-65
2022/08/02 12:52:00;;;;;;;2.55;1.25;;;28.80;1.00;;;;;;8332762;28;20186;-70
2022/08/02 12:56:01;;;;;;;3.03;1.33;;;28.70;1.00;;;;;;8343045;28;20183;-66
2022/08/02 13:00:03;;;;;;;1.40;1.30;;;28.80;1.00;;;;;;8336277;28;20179;-65
2022/08/02 13:04:05;;;;;;;1.38;1.27;;;28.30;1.00;;;;;;8340751;28;20182;-66
2022/08/02 13:08:06;;;;;;;3.80;1.48;;;28.50;1.00;;;;;;8338535;28;20213;-66
2022/08/02 13:12:08;;;;;;;1.15;1.05;;;28.70;1.00;;;;;;8336669;28;20280;-66
2022/08/02 13:16:09;;;;;;;2.55;1.33;;;28.60;1.00;;;;;;8342575;28;20182;-66
2022/08/02 13:20:13;;;;;;;2.08;1.30;;;28.20;1.00;;;;;;8340434;28;20563;-66
2022/08/02 13:24:15;;;;;;;2.22;1.50;;;28.00;1.00;;;;;;8340537;28;20174;-65
2022/08/02 13:28:16;;;;;;;1.73;1.60;;;27.90;1.00;;;;;;8339413;28;20218;-66
2022/08/02 13:32:17;;;;;;;1.80;1.38;;;27.50;1.00;;;;;;8355730;28;20186;-65
2022/08/02 13:36:18;;;;;;;2.60;1.30;;;27.40;1.00;;;;;;8342170;28;20191;-65
2022/08/02 13:40:19;;;;;;;1.52;1.42;;;27.10;1.00;;;;;;8337355;28;20198;-65
2022/08/02 13:44:20;;;;;;;1.92;1.40;;;27.20;1.00;;;;;;8336809;28;20185;-65
2022/08/02 13:48:21;;;;;;;4.13;1.45;;;27.40;1.00;;;;;;8342408;28;20236;-65
2022/08/02 13:52:22;;;;;;;1.90;1.35;;;27.30;1.00;;;;;;8338171;28;20273;-65
2022/08/02 13:56:23;;;;;;;2.40;1.50;;;26.80;1.00;;;;;;8340578;28;20244;-65
2022/08/02 14:00:24;;;;;;;1.50;1.40;;;26.50;1.00;;;;;;8337373;28;20190;-65
2022/08/02 14:04:25;;;;;;;3.70;1.42;;;26.50;1.00;;;;;;8339837;28;20189;-65
2022/08/02 14:08:26;;;;;;;1.30;1.20;;;26.60;1.00;;;;;;8338648;28;20232;-68
2022/08/02 14:12:27;;;;;;;1.95;1.40;;;27.10;1.00;;;;;;8335239;28;20238;-65
2022/08/02 14:16:28;;;;;;;1.88;1.40;;;27.60;1.00;;;;;;8338909;28;20187;-65
2022/08/02 14:20:29;;;;;;;1.23;1.13;;;28.00;1.00;;;;;;8336492;28;20247;-65
2022/08/02 14:24:30;;;;;;;2.35;1.55;;;28.40;1.00;;;;;;8334300;28;20221;-66
2022/08/02 14:28:31;;;;;;;1.33;1.23;;;28.50;1.00;;;;;;8338452;28;20237;-65
2022/08/02 14:32:32;;;;;;;1.50;1.40;;;28.50;1.00;;;;;;8336678;28;20189;-65
2022/08/02 14:36:33;;;;;;;2.65;1.27;;;28.70;1.00;;;;;;8337953;28;20216;-65
2022/08/02 14:40:34;;;;;;;1.10;1.00;;;28.90;1.00;;;;;;8335039;28;20186;-66
2022/08/02 14:44:35;;;;;;;1.30;1.20;;;29.00;1.00;;;;;;8336632;28;20189;-66
2022/08/02 14:48:36;;;;;;;1.55;1.20;;;28.90;1.00;;;;;;8331265;28;20210;-65
2022/08/02 14:52:47;;;;;;;1.20;1.10;;;29.00;1.00;;;;;;8338014;28;20178;-66
2022/08/02 14:56:48;;;;;;;1.40;1.30;;;29.10;1.00;;;;;;8334552;28;20183;-66
2022/08/02 15:00:48;;;;;;;1.42;1.33;;;29.00;1.00;;;;;;8335188;28;20192;-65
2022/08/02 15:04:50;;;;;;;3.38;1.45;;;29.10;1.00;;;;;;8334759;28;20252;-66
2022/08/02 15:08:51;;;;;;;3.17;1.38;;;29.00;1.00;;;;;;8337713;28;20231;-65
2022/08/02 15:12:52;;;;;;;1.10;1.00;;;28.60;1.00;;;;;;8333904;28;20202;-64
2022/08/02 15:16:53;;;;;;;1.92;1.30;;;28.20;1.00;;;;;;8335149;28;20216;-64
2022/08/02 15:20:54;;;;;;;2.65;1.30;;;28.10;1.00;;;;;;8335793;28;20178;-64
2022/08/02 15:24:56;;;;;;;1.77;1.15;;;28.00;1.00;;;;;;8339657;28;20182;-65
2022/08/02 15:28:57;;;;;;;2.50;1.50;;;28.10;1.00;;;;;;8339487;28;20225;-65
2022/08/02 15:32:58;;;;;;;1.25;1.10;;;28.30;1.00;;;;;;8342678;28;20186;-65
2022/08/02 15:36:59;;;;;;;1.77;1.40;;;28.40;1.00;;;;;;8332182;28;20177;-64
2022/08/02 15:41:00;;;;;;;2.55;1.42;;;28.30;1.00;;;;;;8335980;28;20182;-64
2022/08/02 15:45:00;;;;;;;1.67;1.40;;;28.10;1.00;;;;;;8330424;28;20206;-64
2022/08/02 15:49:01;;;;;;;1.88;1.30;;;28.10;1.00;;;;;;8335805;28;20208;-64
2022/08/02 15:53:02;;;;;;;2.20;1.30;;;28.00;1.00;;;;;;8334775;28;20257;-65
2022/08/02 15:57:03;;;;;;;0.98;0.98;;;28.00;1.00;;;;;;8335269;28;20206;-65
2022/08/02 16:01:04;;;;;;;1.20;1.10;;;27.90;1.00;;;;;;8335648;28;20550;-64
2022/08/02 16:05:05;;;;;;;2.65;1.30;;;28.00;1.00;;;;;;8335405;28;20202;-64
2022/08/02 16:09:06;;;;;;;1.77;1.08;;;28.10;1.00;;;;;;8333757;28;20277;-63
2022/08/02 16:17:46;;;;;;;1.83;1.35;;;28.20;1.00;;;;;;8344182;28;20476;-64
2022/08/02 16:21:47;;;;;;;1.30;1.10;;;27.90;1.00;;;;;;8344390;28;20221;-65
2022/08/02 16:25:48;;;;;;;2.35;1.00;;;27.60;1.00;;;;;;8335864;28;20525;-64
2022/08/02 16:29:49;;;;;;;2.05;1.38;;;27.40;1.00;;;;;;8339271;28;20206;-64
2022/08/02 16:33:49;;;;;;;2.25;1.25;;;27.50;1.00;;;;;;8339071;28;20231;-65
2022/08/02 16:37:53;;;;;;;1.45;1.10;;;27.50;1.00;;;;;;8340252;28;20174;-64
2022/08/02 16:41:54;;;;;;;1.70;1.10;;;27.60;1.00;;;;;;8340485;28;20184;-65
2022/08/02 16:45:55;;;;;;;1.40;1.30;;;27.80;1.00;;;;;;8347957;28;20182;-64
2022/08/02 16:49:56;;;;;;;2.05;1.40;;;27.80;1.00;;;;;;8346190;28;20255;-64
2022/08/02 16:53:57;;;;;;;1.52;1.30;;;27.80;1.00;;;;;;8340226;28;20249;-64
2022/08/02 16:57:59;;;;;;;1.60;1.10;;;27.80;1.00;;;;;;8339669;28;20182;-74
2022/08/02 17:02:00;;;;;;;1.70;1.30;;;27.70;1.00;;;;;;8344276;28;20174;-64
2022/08/02 17:06:01;;;;;;;1.85;1.27;;;27.50;1.00;;;;;;8342907;28;20317;-64
2022/08/02 17:10:05;;;;;;;1.77;1.45;;;27.20;1.00;;;;;;8341542;28;20230;-64
2022/08/02 17:14:05;;;;;;;1.48;1.30;;;27.10;1.00;;;;;;8343908;28;20258;-63
2022/08/02 17:18:06;;;;;;;1.90;1.40;;;27.00;1.00;;;;;;8340895;28;20178;-65
2022/08/02 17:22:07;;;;;;;1.60;1.48;;;26.80;1.00;;;;;;8346528;28;20198;-65
2022/08/02 17:26:08;;;;;;;1.42;1.33;;;26.60;1.00;;;;;;8344641;28;20186;-65
2022/08/02 17:30:10;;;;;;;2.50;1.63;;;26.40;1.00;;;;;;8341702;28;20235;-65
2022/08/02 17:34:11;;;;;;;1.92;1.75;;;26.40;1.00;;;;;;8344785;28;20178;-69
2022/08/02 17:38:12;;;;;;;2.15;1.65;;;26.50;1.00;;;;;;8343763;28;20216;-65
2022/08/02 17:42:15;;;;;;;1.48;1.38;;;26.60;10.70;;;;;;8347602;28;20185;-65
2022/08/02 17:46:16;;;;;;;2.17;1.60;;;26.50;19.00;;;;;;8333944;28;20202;-65
2022/08/02 17:50:17;;;;;;;1.55;1.42;;;26.40;36.30;;;;;;8340040;28;20244;-65
2022/08/02 17:54:20;;;;;;;1.90;1.80;;;26.20;36.10;;;;;;8344306;28;20281;-64
2022/08/02 17:58:21;;;;;;;6.97;2.40;;;25.90;54.50;;;;;;8342658;28;20186;-65
2022/08/02 18:02:22;;;;;;;2.27;1.70;;;25.30;99.90;;;;;;8338758;28;20179;-65
2022/08/02 18:06:23;;;;;;;2.27;2.07;;;24.80;99.90;;;;;;8346537;28;20186;-65
2022/08/02 18:10:24;;;;;;;2.37;1.80;;;24.50;99.90;;;;;;8335668;28;20213;-65
2022/08/02 18:14:24;;;;;;;2.50;2.30;;;24.30;99.90;;;;;;8340630;28;20237;-65
2022/08/02 18:18:25;;;;;;;4.87;3.30;;;24.10;99.90;;;;;;8332185;28;20181;-65
2022/08/02 18:22:26;;;;;;;3.33;2.80;;;23.90;99.90;;;;;;8342079;28;20236;-65
2022/08/02 18:26:27;;;;;;;2.97;2.60;;;23.70;99.90;;;;;;8338652;28;20265;-65
2022/08/02 18:30:32;;;;;;;4.20;2.87;;;23.60;99.90;;;;;;8340000;28;20202;-65
2022/08/02 18:34:34;;;;;;;5.63;2.60;;;23.40;99.90;;;;;;8336799;28;20183;-65
2022/08/02 18:38:36;;;;;;;2.60;2.10;;;23.20;99.90;;;;;;8338642;28;20178;-65
2022/08/02 18:42:37;;;;;;;2.67;2.47;;;22.80;99.90;;;;;;8338625;28;20244;-64
2022/08/02 18:46:38;;;;;;;2.53;2.33;;;22.50;1.00;;;;;;8337078;28;20191;-64
2022/08/02 18:50:39;;;;;;;2.80;2.47;;;22.20;1.00;;;;;;8338779;28;20216;-64
2022/08/02 18:54:40;;;;;;;2.40;2.20;;;22.00;1.00;;;;;;8342801;28;20205;-65
2022/08/02 18:58:41;;;;;;;2.53;2.33;;;21.70;1.00;;;;;;8339632;28;20217;-65
2022/08/02 19:02:42;;;;;;;2.60;2.40;;;21.50;78.10;;;;;;8337945;28;20189;-65
2022/08/02 19:06:43;;;;;;;2.67;2.47;;;21.30;99.90;;;;;;8337195;28;20234;-64
2022/08/02 19:10:50;;;;;;;2.77;2.50;;;21.00;99.90;;;;;;8335296;28;20221;-65
2022/08/02 19:14:51;;;;;;;3.57;2.60;;;20.80;99.90;;;;;;8342506;28;20199;-65
2022/08/02 19:18:52;;;;;;;2.77;2.57;;;20.70;1.00;;;;;;8335267;28;20185;-65
2022/08/02 19:22:55;;;;;;;5.73;3.83;;;20.50;1.00;;;;;;8336179;28;20194;-65
2022/08/02 19:26:56;;;;;;;8.90;6.07;;;20.30;1.00;;;;;;8338269;28;20178;-65
2022/08/02 19:30:57;;;;;;;8.00;5.80;;;20.20;1.00;;;;;;8336330;28;20233;-66
2022/08/02 19:35:00;;;;;;;6.77;5.60;;;20.10;1.00;;;;;;8339115;28;20182;-66
2022/08/02 19:39:01;;;;;;;6.57;5.90;;;19.90;60.80;;;;;;8344394;28;20195;-65
2022/08/02 19:43:02;;;;;;;7.23;5.43;;;19.80;99.90;;;;;;8336681;28;20264;-65
2022/08/02 19:47:03;;;;;;;5.37;4.87;;;19.60;99.90;;;;;;8338296;28;20188;-65
2022/08/02 19:51:04;;;;;;;4.13;3.73;;;19.50;99.90;;;;;;8336710;28;20209;-65
2022/08/02 19:55:07;;;;;;;3.70;3.40;;;19.40;99.90;;;;;;8341491;28;20186;-65
2022/08/02 19:59:10;;;;;;;5.63;4.33;;;19.30;99.90;;;;;;8341757;28;20278;-65
2022/08/02 20:03:11;;;;;;;4.03;3.63;;;19.20;99.90;;;;;;8337195;28;20186;-65
2022/08/02 20:07:12;;;;;;;5.20;3.90;;;19.20;1.00;;;;;;8331621;28;20189;-66
2022/08/02 20:11:28;;;;;;;4.03;3.73;;;19.10;1.00;;;;;;8393687;27;20584;-66
2022/08/02 20:15:29;;;;;;;4.13;3.67;;;19.00;99.90;;;;;;8372234;28;20201;-65
2022/08/02 20:19:31;;;;;;;3.93;3.63;;;18.90;99.90;;;;;;8366661;28;20178;-65
2022/08/02 20:23:33;;;;;;;4.63;4.23;;;18.80;99.90;;;;;;8374211;28;20192;-65
2022/08/02 20:27:34;;;;;;;4.27;3.80;;;18.80;1.00;;;;;;8366819;28;20761;-65
2022/08/02 20:31:35;;;;;;;4.37;4.07;;;18.70;1.00;;;;;;8367223;28;20181;-67
2022/08/02 20:35:37;;;;;;;4.17;3.83;;;18.60;1.00;;;;;;8360326;28;20209;-68
2022/08/02 20:39:38;;;;;;;4.07;3.77;;;18.50;67.90;;;;;;8361731;28;20173;-65
2022/08/02 20:43:39;;;;;;;4.70;4.30;;;18.40;99.90;;;;;;8357292;28;20186;-66
2022/08/02 20:47:41;;;;;;;4.40;4.00;;;18.30;99.90;;;;;;8359214;28;20217;-65
2022/08/02 20:51:42;;;;;;;4.40;4.00;;;18.20;61.20;;;;;;8366505;28;20288;-66
2022/08/02 20:55:48;;;;;;;4.10;3.70;;;18.10;99.90;;;;;;8364253;28;20181;-66
2022/08/02 20:59:49;;;;;;;4.30;3.90;;;18.00;1.00;;;;;;8361808;28;20200;-66
2022/08/02 21:03:53;;;;;;;4.00;3.70;;;17.90;1.00;;;;;;8366306;28;20192;-66
2022/08/02 21:07:54;;;;;;;4.90;4.50;;;17.90;99.90;;;;;;8366379;28;20252;-66
2022/08/02 21:11:55;;;;;;;4.57;4.17;;;17.90;1.00;;;;;;8364712;28;20206;-67
2022/08/02 21:15:56;;;;;;;4.93;4.40;;;17.80;1.00;;;;;;8361294;28;20190;-65